sensor_id;sensor_type;location;lat;lon;timestamp;P1;durP1;ratioP1;P2;durP2;ratioP2
4686;SDS011;2357;47.316;-1.348;2023-10-13T00:00:32;11.10;;;4.20;;
4686;SDS011;2357;47.316;-1.348;2023-10-13T00:03:02;8.37;;;3.40;;
4686;SDS011;2357;47.316;-1.348;2023-10-13T00:05:29;7.83;;;3.60;;
4686;SDS011;2357;47.316;-1.348;2023-10-13T00:07:59;10.73;;;4.87;;
4686;SDS011;2357;47.316;-1.348;2023-10-13T00:10:35;15.80;;;4.00;;
4686;SDS011;2357;47.316;-1.348;2023-10-13T00:13:01;13.70;;;3.73;;
4686;SDS011;2357;47.316;-1.348;2023-10-13T00:15:43;10.53;;;3.20;;
4686;SDS011;2357;47.316;-1.348;2023-10-13T00:18:23;16.47;;;3.80;;
4686;SDS011;2357;47.316;-1.348;2023-10-13T00:20:58;11.17;;;3.53;;
4686;SDS011;2357;47.316;-1.348;2023-10-13T00:23:24;6.80;;;3.40;;
4686;SDS011;2357;47.316;-1.348;2023-10-13T00:25:52;18.83;;;3.57;;
4686;SDS011;2357;47.316;-1.348;2023-10-13T00:28:28;6.97;;;3.90;;
4686;SDS011;2357;47.316;-1.348;2023-10-13T00:31:12;8.17;;;3.37;;
4686;SDS011;2357;47.316;-1.348;2023-10-13T00:33:39;14.10;;;3.20;;
4686;SDS011;2357;47.316;-1.348;2023-10-13T00:36:11;16.13;;;4.30;;
4686;SDS011;2357;47.316;-1.348;2023-10-13T00:38:44;9.70;;;3.70;;
4686;SDS011;2357;47.316;-1.348;2023-10-13T00:41:13;14.77;;;4.40;;
4686;SDS011;2357;47.316;-1.348;2023-10-13T00:43:47;11.93;;;4.63;;
4686;SDS011;2357;47.316;-1.348;2023-10-13T00:46:32;18.23;;;4.60;;
4686;SDS011;2357;47.316;-1.348;2023-10-13T00:48:59;12.63;;;4.27;;
4686;SDS011;2357;47.316;-1.348;2023-10-13T00:51:26;9.30;;;3.20;;
4686;SDS011;2357;47.316;-1.348;2023-10-13T00:54:03;9.07;;;3.77;;
4686;SDS011;2357;47.316;-1.348;2023-10-13T00:56:37;11.10;;;4.17;;
4686;SDS011;2357;47.316;-1.348;2023-10-13T00:59:17;9.83;;;3.83;;
4686;SDS011;2357;47.316;-1.348;2023-10-13T01:01:44;15.40;;;5.03;;
4686;SDS011;2357;47.316;-1.348;2023-10-13T01:04:11;15.67;;;5.10;;
4686;SDS011;2357;47.316;-1.348;2023-10-13T01:06:39;13.70;;;3.60;;
4686;SDS011;2357;47.316;-1.348;2023-10-13T01:09:08;9.47;;;3.67;;
4686;SDS011;2357;47.316;-1.348;2023-10-13T01:11:48;14.73;;;4.00;;
4686;SDS011;2357;47.316;-1.348;2023-10-13T01:14:17;13.23;;;4.10;;
4686;SDS011;2357;47.316;-1.348;2023-10-13T01:16:45;10.67;;;4.33;;
4686;SDS011;2357;47.316;-1.348;2023-10-13T01:19:12;18.60;;;4.23;;
4686;SDS011;2357;47.316;-1.348;2023-10-13T01:21:52;14.07;;;4.13;;
4686;SDS011;2357;47.316;-1.348;2023-10-13T01:24:32;15.10;;;4.23;;
4686;SDS011;2357;47.316;-1.348;2023-10-13T01:27:04;13.40;;;4.60;;
4686;SDS011;2357;47.316;-1.348;2023-10-13T01:29:46;14.30;;;4.03;;
4686;SDS011;2357;47.316;-1.348;2023-10-13T01:32:21;16.77;;;4.10;;
4686;SDS011;2357;47.316;-1.348;2023-10-13T01:34:48;11.73;;;3.87;;
4686;SDS011;2357;47.316;-1.348;2023-10-13T01:37:15;31.43;;;5.60;;
4686;SDS011;2357;47.316;-1.348;2023-10-13T01:39:44;16.10;;;3.90;;
4686;SDS011;2357;47.316;-1.348;2023-10-13T01:42:12;15.33;;;4.37;;
4686;SDS011;2357;47.316;-1.348;2023-10-13T01:44:44;10.53;;;4.90;;
4686;SDS011;2357;47.316;-1.348;2023-10-13T01:47:10;17.37;;;4.53;;
4686;SDS011;2357;47.316;-1.348;2023-10-13T01:49:37;7.67;;;4.27;;
4686;SDS011;2357;47.316;-1.348;2023-10-13T01:52:23;8.93;;;4.13;;
4686;SDS011;2357;47.316;-1.348;2023-10-13T01:54:52;12.93;;;3.73;;
4686;SDS011;2357;47.316;-1.348;2023-10-13T01:57:19;8.77;;;3.97;;
4686;SDS011;2357;47.316;-1.348;2023-10-13T01:59:49;9.10;;;4.40;;
4686;SDS011;2357;47.316;-1.348;2023-10-13T02:02:15;16.63;;;3.67;;
4686;SDS011;2357;47.316;-1.348;2023-10-13T02:04:53;12.63;;;4.30;;
4686;SDS011;2357;47.316;-1.348;2023-10-13T02:07:25;7.30;;;4.00;;
4686;SDS011;2357;47.316;-1.348;2023-10-13T02:09:59;6.87;;;4.70;;
4686;SDS011;2357;47.316;-1.348;2023-10-13T02:12:29;7.67;;;4.10;;
4686;SDS011;2357;47.316;-1.348;2023-10-13T02:15:07;6.77;;;4.50;;
4686;SDS011;2357;47.316;-1.348;2023-10-13T02:17:46;9.63;;;3.90;;
4686;SDS011;2357;47.316;-1.348;2023-10-13T02:20:16;15.70;;;4.00;;
4686;SDS011;2357;47.316;-1.348;2023-10-13T02:22:48;12.70;;;3.77;;
4686;SDS011;2357;47.316;-1.348;2023-10-13T02:25:17;9.60;;;3.93;;
4686;SDS011;2357;47.316;-1.348;2023-10-13T02:28:22;16.50;;;4.57;;
4686;SDS011;2357;47.316;-1.348;2023-10-13T02:30:53;7.93;;;3.43;;
4686;SDS011;2357;47.316;-1.348;2023-10-13T02:33:18;10.33;;;3.50;;
4686;SDS011;2357;47.316;-1.348;2023-10-13T02:35:48;7.33;;;3.37;;
4686;SDS011;2357;47.316;-1.348;2023-10-13T02:38:20;8.10;;;3.77;;
4686;SDS011;2357;47.316;-1.348;2023-10-13T02:41:16;24.13;;;4.43;;
4686;SDS011;2357;47.316;-1.348;2023-10-13T02:43:53;9.83;;;4.57;;
4686;SDS011;2357;47.316;-1.348;2023-10-13T02:46:20;12.07;;;3.70;;
4686;SDS011;2357;47.316;-1.348;2023-10-13T02:48:47;23.70;;;4.70;;
4686;SDS011;2357;47.316;-1.348;2023-10-13T02:51:18;20.10;;;4.07;;
4686;SDS011;2357;47.316;-1.348;2023-10-13T02:53:50;23.37;;;4.87;;
4686;SDS011;2357;47.316;-1.348;2023-10-13T02:56:17;11.40;;;4.73;;
4686;SDS011;2357;47.316;-1.348;2023-10-13T02:58:51;5.70;;;3.83;;
4686;SDS011;2357;47.316;-1.348;2023-10-13T03:01:30;14.33;;;4.20;;
4686;SDS011;2357;47.316;-1.348;2023-10-13T03:04:00;16.47;;;4.33;;
4686;SDS011;2357;47.316;-1.348;2023-10-13T03:06:27;16.70;;;4.20;;
4686;SDS011;2357;47.316;-1.348;2023-10-13T03:08:59;10.00;;;4.30;;
4686;SDS011;2357;47.316;-1.348;2023-10-13T03:11:39;14.77;;;4.37;;
4686;SDS011;2357;47.316;-1.348;2023-10-13T03:14:07;13.80;;;4.60;;
4686;SDS011;2357;47.316;-1.348;2023-10-13T03:16:44;10.80;;;3.50;;
4686;SDS011;2357;47.316;-1.348;2023-10-13T03:19:10;16.03;;;4.07;;
4686;SDS011;2357;47.316;-1.348;2023-10-13T03:21:36;8.43;;;4.47;;
4686;SDS011;2357;47.316;-1.348;2023-10-13T03:24:01;12.00;;;4.47;;
4686;SDS011;2357;47.316;-1.348;2023-10-13T03:26:31;6.23;;;4.17;;
4686;SDS011;2357;47.316;-1.348;2023-10-13T03:29:04;6.37;;;3.70;;
4686;SDS011;2357;47.316;-1.348;2023-10-13T03:31:33;14.90;;;5.20;;
4686;SDS011;2357;47.316;-1.348;2023-10-13T03:34:02;9.50;;;4.63;;
4686;SDS011;2357;47.316;-1.348;2023-10-13T03:36:29;6.80;;;4.60;;
4686;SDS011;2357;47.316;-1.348;2023-10-13T03:39:20;11.23;;;4.47;;
4686;SDS011;2357;47.316;-1.348;2023-10-13T03:41:52;14.57;;;3.93;;
4686;SDS011;2357;47.316;-1.348;2023-10-13T03:44:19;9.70;;;4.07;;
4686;SDS011;2357;47.316;-1.348;2023-10-13T03:46:45;11.33;;;4.27;;
4686;SDS011;2357;47.316;-1.348;2023-10-13T03:49:13;17.23;;;4.30;;
4686;SDS011;2357;47.316;-1.348;2023-10-13T03:51:45;10.17;;;4.40;;
4686;SDS011;2357;47.316;-1.348;2023-10-13T03:54:12;7.23;;;4.87;;
4686;SDS011;2357;47.316;-1.348;2023-10-13T03:56:41;15.23;;;5.97;;
4686;SDS011;2357;47.316;-1.348;2023-10-13T03:59:09;15.03;;;4.50;;
4686;SDS011;2357;47.316;-1.348;2023-10-13T04:01:42;12.30;;;4.63;;
4686;SDS011;2357;47.316;-1.348;2023-10-13T04:04:09;7.13;;;4.30;;
4686;SDS011;2357;47.316;-1.348;2023-10-13T04:06:36;10.27;;;4.73;;
4686;SDS011;2357;47.316;-1.348;2023-10-13T04:09:15;9.50;;;4.70;;
4686;SDS011;2357;47.316;-1.348;2023-10-13T04:12:15;7.90;;;3.90;;
4686;SDS011;2357;47.316;-1.348;2023-10-13T04:14:47;11.63;;;4.23;;
4686;SDS011;2357;47.316;-1.348;2023-10-13T04:17:31;16.60;;;4.90;;
4686;SDS011;2357;47.316;-1.348;2023-10-13T04:20:05;14.40;;;5.10;;
4686;SDS011;2357;47.316;-1.348;2023-10-13T04:22:31;9.33;;;4.40;;
4686;SDS011;2357;47.316;-1.348;2023-10-13T04:25:17;11.97;;;4.10;;
4686;SDS011;2357;47.316;-1.348;2023-10-13T04:28:14;8.10;;;5.20;;
4686;SDS011;2357;47.316;-1.348;2023-10-13T04:33:27;22.40;;;5.00;;
4686;SDS011;2357;47.316;-1.348;2023-10-13T04:36:03;7.70;;;4.43;;
4686;SDS011;2357;47.316;-1.348;2023-10-13T04:41:35;28.50;;;6.57;;
4686;SDS011;2357;47.316;-1.348;2023-10-13T04:44:07;14.03;;;4.80;;
4686;SDS011;2357;47.316;-1.348;2023-10-13T04:46:55;8.50;;;3.90;;
4686;SDS011;2357;47.316;-1.348;2023-10-13T04:49:24;13.03;;;4.40;;
4686;SDS011;2357;47.316;-1.348;2023-10-13T04:52:03;15.63;;;6.37;;
4686;SDS011;2357;47.316;-1.348;2023-10-13T04:54:33;15.63;;;4.40;;
4686;SDS011;2357;47.316;-1.348;2023-10-13T04:57:20;28.57;;;4.93;;
4686;SDS011;2357;47.316;-1.348;2023-10-13T04:59:59;7.40;;;5.53;;
4686;SDS011;2357;47.316;-1.348;2023-10-13T05:02:34;9.23;;;5.27;;
4686;SDS011;2357;47.316;-1.348;2023-10-13T05:05:01;9.03;;;5.10;;
4686;SDS011;2357;47.316;-1.348;2023-10-13T05:07:45;13.10;;;5.43;;
4686;SDS011;2357;47.316;-1.348;2023-10-13T05:10:30;15.17;;;4.70;;
4686;SDS011;2357;47.316;-1.348;2023-10-13T05:13:14;11.10;;;5.30;;
4686;SDS011;2357;47.316;-1.348;2023-10-13T05:15:59;9.00;;;6.17;;
4686;SDS011;2357;47.316;-1.348;2023-10-13T05:18:43;17.57;;;5.00;;
4686;SDS011;2357;47.316;-1.348;2023-10-13T05:21:28;7.60;;;4.73;;
4686;SDS011;2357;47.316;-1.348;2023-10-13T05:24:12;10.63;;;5.70;;
4686;SDS011;2357;47.316;-1.348;2023-10-13T05:26:57;7.63;;;4.80;;
4686;SDS011;2357;47.316;-1.348;2023-10-13T05:29:41;12.53;;;5.30;;
4686;SDS011;2357;47.316;-1.348;2023-10-13T05:32:27;6.87;;;6.00;;
4686;SDS011;2357;47.316;-1.348;2023-10-13T05:35:11;17.33;;;5.97;;
4686;SDS011;2357;47.316;-1.348;2023-10-13T05:37:56;9.47;;;5.03;;
4686;SDS011;2357;47.316;-1.348;2023-10-13T05:40:40;8.97;;;5.60;;
4686;SDS011;2357;47.316;-1.348;2023-10-13T05:43:34;13.77;;;6.23;;
4686;SDS011;2357;47.316;-1.348;2023-10-13T05:46:18;12.13;;;6.17;;
4686;SDS011;2357;47.316;-1.348;2023-10-13T05:48:50;12.97;;;5.60;;
4686;SDS011;2357;47.316;-1.348;2023-10-13T05:51:21;12.57;;;6.03;;
4686;SDS011;2357;47.316;-1.348;2023-10-13T05:54:06;13.03;;;5.27;;
4686;SDS011;2357;47.316;-1.348;2023-10-13T05:56:44;10.87;;;5.83;;
4686;SDS011;2357;47.316;-1.348;2023-10-13T05:59:36;15.33;;;6.17;;
4686;SDS011;2357;47.316;-1.348;2023-10-13T06:02:21;20.53;;;7.57;;
4686;SDS011;2357;47.316;-1.348;2023-10-13T06:05:10;10.60;;;6.70;;
4686;SDS011;2357;47.316;-1.348;2023-10-13T06:07:56;11.80;;;6.80;;
4686;SDS011;2357;47.316;-1.348;2023-10-13T06:10:40;10.50;;;5.70;;
4686;SDS011;2357;47.316;-1.348;2023-10-13T06:13:25;17.23;;;5.77;;
4686;SDS011;2357;47.316;-1.348;2023-10-13T06:16:10;15.60;;;7.30;;
4686;SDS011;2357;47.316;-1.348;2023-10-13T06:18:56;16.37;;;6.40;;
4686;SDS011;2357;47.316;-1.348;2023-10-13T06:21:41;6.60;;;5.73;;
4686;SDS011;2357;47.316;-1.348;2023-10-13T06:24:25;14.63;;;6.73;;
4686;SDS011;2357;47.316;-1.348;2023-10-13T06:27:10;15.60;;;6.47;;
4686;SDS011;2357;47.316;-1.348;2023-10-13T06:29:54;22.13;;;6.87;;
4686;SDS011;2357;47.316;-1.348;2023-10-13T06:32:20;13.30;;;5.93;;
4686;SDS011;2357;47.316;-1.348;2023-10-13T06:34:51;23.37;;;6.10;;
4686;SDS011;2357;47.316;-1.348;2023-10-13T06:37:22;17.03;;;6.03;;
4686;SDS011;2357;47.316;-1.348;2023-10-13T06:39:55;11.57;;;5.73;;
4686;SDS011;2357;47.316;-1.348;2023-10-13T06:42:25;10.20;;;4.90;;
4686;SDS011;2357;47.316;-1.348;2023-10-13T06:44:54;8.90;;;6.17;;
4686;SDS011;2357;47.316;-1.348;2023-10-13T06:47:20;10.37;;;6.70;;
4686;SDS011;2357;47.316;-1.348;2023-10-13T06:49:47;17.03;;;6.37;;
4686;SDS011;2357;47.316;-1.348;2023-10-13T06:52:16;16.80;;;6.93;;
4686;SDS011;2357;47.316;-1.348;2023-10-13T06:54:42;9.70;;;5.87;;
4686;SDS011;2357;47.316;-1.348;2023-10-13T06:57:09;8.20;;;5.40;;
4686;SDS011;2357;47.316;-1.348;2023-10-13T06:59:45;30.43;;;6.53;;
4686;SDS011;2357;47.316;-1.348;2023-10-13T07:02:11;14.00;;;7.63;;
4686;SDS011;2357;47.316;-1.348;2023-10-13T07:04:46;13.30;;;5.93;;
4686;SDS011;2357;47.316;-1.348;2023-10-13T07:07:12;16.13;;;7.20;;
4686;SDS011;2357;47.316;-1.348;2023-10-13T07:09:41;10.97;;;6.03;;
4686;SDS011;2357;47.316;-1.348;2023-10-13T07:12:25;13.00;;;6.30;;
4686;SDS011;2357;47.316;-1.348;2023-10-13T07:14:51;20.23;;;7.33;;
4686;SDS011;2357;47.316;-1.348;2023-10-13T07:17:18;14.30;;;6.10;;
4686;SDS011;2357;47.316;-1.348;2023-10-13T07:19:51;23.93;;;6.57;;
4686;SDS011;2357;47.316;-1.348;2023-10-13T07:22:18;9.03;;;6.30;;
4686;SDS011;2357;47.316;-1.348;2023-10-13T07:24:45;8.30;;;5.97;;
4686;SDS011;2357;47.316;-1.348;2023-10-13T07:27:20;10.03;;;5.53;;
4686;SDS011;2357;47.316;-1.348;2023-10-13T07:29:50;11.17;;;6.60;;
4686;SDS011;2357;47.316;-1.348;2023-10-13T07:32:21;13.53;;;6.33;;
4686;SDS011;2357;47.316;-1.348;2023-10-13T07:34:52;13.53;;;5.77;;
4686;SDS011;2357;47.316;-1.348;2023-10-13T07:37:21;9.73;;;6.40;;
4686;SDS011;2357;47.316;-1.348;2023-10-13T07:39:53;10.07;;;5.70;;
4686;SDS011;2357;47.316;-1.348;2023-10-13T07:42:22;26.73;;;6.37;;
4686;SDS011;2357;47.316;-1.348;2023-10-13T07:44:50;10.43;;;5.83;;
4686;SDS011;2357;47.316;-1.348;2023-10-13T07:47:20;13.70;;;6.43;;
4686;SDS011;2357;47.316;-1.348;2023-10-13T07:49:49;9.10;;;5.87;;
4686;SDS011;2357;47.316;-1.348;2023-10-13T07:52:16;14.47;;;5.77;;
4686;SDS011;2357;47.316;-1.348;2023-10-13T07:54:44;19.00;;;6.20;;
4686;SDS011;2357;47.316;-1.348;2023-10-13T07:57:21;18.10;;;6.77;;
4686;SDS011;2357;47.316;-1.348;2023-10-13T07:59:54;14.50;;;5.50;;
4686;SDS011;2357;47.316;-1.348;2023-10-13T08:02:31;12.13;;;5.93;;
4686;SDS011;2357;47.316;-1.348;2023-10-13T08:05:16;7.43;;;5.27;;
4686;SDS011;2357;47.316;-1.348;2023-10-13T08:07:54;7.60;;;4.60;;
4686;SDS011;2357;47.316;-1.348;2023-10-13T08:10:21;9.40;;;5.33;;
4686;SDS011;2357;47.316;-1.348;2023-10-13T08:12:54;15.20;;;5.80;;
4686;SDS011;2357;47.316;-1.348;2023-10-13T08:15:22;12.80;;;5.40;;
4686;SDS011;2357;47.316;-1.348;2023-10-13T08:17:57;9.77;;;5.50;;
4686;SDS011;2357;47.316;-1.348;2023-10-13T08:20:24;12.13;;;6.17;;
4686;SDS011;2357;47.316;-1.348;2023-10-13T08:22:55;11.80;;;5.73;;
4686;SDS011;2357;47.316;-1.348;2023-10-13T08:25:38;13.30;;;5.50;;
4686;SDS011;2357;47.316;-1.348;2023-10-13T08:28:22;20.07;;;6.03;;
4686;SDS011;2357;47.316;-1.348;2023-10-13T08:31:06;11.77;;;4.90;;
4686;SDS011;2357;47.316;-1.348;2023-10-13T08:33:51;17.70;;;5.80;;
4686;SDS011;2357;47.316;-1.348;2023-10-13T08:36:30;11.27;;;6.03;;
4686;SDS011;2357;47.316;-1.348;2023-10-13T08:38:56;16.70;;;5.63;;
4686;SDS011;2357;47.316;-1.348;2023-10-13T08:41:23;11.73;;;5.73;;
4686;SDS011;2357;47.316;-1.348;2023-10-13T08:43:49;10.63;;;5.80;;
4686;SDS011;2357;47.316;-1.348;2023-10-13T08:46:15;12.33;;;5.70;;
4686;SDS011;2357;47.316;-1.348;2023-10-13T08:48:57;10.10;;;5.57;;
4686;SDS011;2357;47.316;-1.348;2023-10-13T08:51:34;13.63;;;7.53;;
4686;SDS011;2357;47.316;-1.348;2023-10-13T08:54:30;10.20;;;5.90;;
4686;SDS011;2357;47.316;-1.348;2023-10-13T08:57:00;15.50;;;5.40;;
4686;SDS011;2357;47.316;-1.348;2023-10-13T08:59:55;13.80;;;5.20;;
4686;SDS011;2357;47.316;-1.348;2023-10-13T09:02:21;7.83;;;5.07;;
4686;SDS011;2357;47.316;-1.348;2023-10-13T09:05:08;13.40;;;5.73;;
4686;SDS011;2357;47.316;-1.348;2023-10-13T09:07:54;11.70;;;5.37;;
4686;SDS011;2357;47.316;-1.348;2023-10-13T09:10:24;19.37;;;6.07;;
4686;SDS011;2357;47.316;-1.348;2023-10-13T09:12:58;10.03;;;6.07;;
4686;SDS011;2357;47.316;-1.348;2023-10-13T09:15:29;10.10;;;5.93;;
4686;SDS011;2357;47.316;-1.348;2023-10-13T09:18:25;25.80;;;6.07;;
4686;SDS011;2357;47.316;-1.348;2023-10-13T09:21:08;9.67;;;4.73;;
4686;SDS011;2357;47.316;-1.348;2023-10-13T09:23:52;15.27;;;5.60;;
4686;SDS011;2357;47.316;-1.348;2023-10-13T09:26:38;8.77;;;5.50;;
4686;SDS011;2357;47.316;-1.348;2023-10-13T09:29:13;10.10;;;5.53;;
4686;SDS011;2357;47.316;-1.348;2023-10-13T09:31:39;14.47;;;5.17;;
4686;SDS011;2357;47.316;-1.348;2023-10-13T09:34:09;6.30;;;4.53;;
4686;SDS011;2357;47.316;-1.348;2023-10-13T09:36:35;12.23;;;5.70;;
4686;SDS011;2357;47.316;-1.348;2023-10-13T09:39:01;16.53;;;7.00;;
4686;SDS011;2357;47.316;-1.348;2023-10-13T09:41:39;11.53;;;5.43;;
4686;SDS011;2357;47.316;-1.348;2023-10-13T09:44:05;10.13;;;5.47;;
4686;SDS011;2357;47.316;-1.348;2023-10-13T09:46:33;16.33;;;5.43;;
4686;SDS011;2357;47.316;-1.348;2023-10-13T09:49:11;12.80;;;5.83;;
4686;SDS011;2357;47.316;-1.348;2023-10-13T09:51:58;11.57;;;5.23;;
4686;SDS011;2357;47.316;-1.348;2023-10-13T09:54:30;20.00;;;6.50;;
4686;SDS011;2357;47.316;-1.348;2023-10-13T09:57:12;11.93;;;5.13;;
4686;SDS011;2357;47.316;-1.348;2023-10-13T09:59:55;11.40;;;5.23;;
4686;SDS011;2357;47.316;-1.348;2023-10-13T10:02:32;14.70;;;4.70;;
4686;SDS011;2357;47.316;-1.348;2023-10-13T10:05:00;17.40;;;5.70;;
4686;SDS011;2357;47.316;-1.348;2023-10-13T10:07:38;18.20;;;5.10;;
4686;SDS011;2357;47.316;-1.348;2023-10-13T10:10:09;17.83;;;6.17;;
4686;SDS011;2357;47.316;-1.348;2023-10-13T10:12:42;9.33;;;4.83;;
4686;SDS011;2357;47.316;-1.348;2023-10-13T10:18:28;16.47;;;6.10;;
4686;SDS011;2357;47.316;-1.348;2023-10-13T10:21:04;13.27;;;4.87;;
4686;SDS011;2357;47.316;-1.348;2023-10-13T10:23:34;21.77;;;5.50;;
4686;SDS011;2357;47.316;-1.348;2023-10-13T10:26:16;18.33;;;5.90;;
4686;SDS011;2357;47.316;-1.348;2023-10-13T10:28:45;26.73;;;5.60;;
4686;SDS011;2357;47.316;-1.348;2023-10-13T10:31:12;13.37;;;3.83;;
4686;SDS011;2357;47.316;-1.348;2023-10-13T10:33:39;23.17;;;5.80;;
4686;SDS011;2357;47.316;-1.348;2023-10-13T10:36:05;16.30;;;4.50;;
4686;SDS011;2357;47.316;-1.348;2023-10-13T10:38:30;20.77;;;4.30;;
4686;SDS011;2357;47.316;-1.348;2023-10-13T10:41:06;20.33;;;5.63;;
4686;SDS011;2357;47.316;-1.348;2023-10-13T10:46:13;12.60;;;3.97;;
4686;SDS011;2357;47.316;-1.348;2023-10-13T10:48:39;19.13;;;5.00;;
4686;SDS011;2357;47.316;-1.348;2023-10-13T10:51:08;19.80;;;4.40;;
4686;SDS011;2357;47.316;-1.348;2023-10-13T10:53:50;17.20;;;4.40;;
4686;SDS011;2357;47.316;-1.348;2023-10-13T10:56:18;16.07;;;5.23;;
4686;SDS011;2357;47.316;-1.348;2023-10-13T10:58:50;13.53;;;5.33;;
4686;SDS011;2357;47.316;-1.348;2023-10-13T11:01:27;20.80;;;5.40;;
4686;SDS011;2357;47.316;-1.348;2023-10-13T11:04:05;16.07;;;6.57;;
4686;SDS011;2357;47.316;-1.348;2023-10-13T11:06:52;21.97;;;7.17;;
4686;SDS011;2357;47.316;-1.348;2023-10-13T11:09:28;21.03;;;7.20;;
4686;SDS011;2357;47.316;-1.348;2023-10-13T11:15:06;18.47;;;7.47;;
4686;SDS011;2357;47.316;-1.348;2023-10-13T11:17:50;23.53;;;8.07;;
4686;SDS011;2357;47.316;-1.348;2023-10-13T11:20:16;24.63;;;8.13;;
4686;SDS011;2357;47.316;-1.348;2023-10-13T11:22:50;25.37;;;7.10;;
4686;SDS011;2357;47.316;-1.348;2023-10-13T11:25:21;32.73;;;6.97;;
4686;SDS011;2357;47.316;-1.348;2023-10-13T11:27:54;30.47;;;8.57;;
4686;SDS011;2357;47.316;-1.348;2023-10-13T11:30:21;24.57;;;7.50;;
4686;SDS011;2357;47.316;-1.348;2023-10-13T11:33:23;21.63;;;6.80;;
4686;SDS011;2357;47.316;-1.348;2023-10-13T11:35:54;17.73;;;6.87;;
4686;SDS011;2357;47.316;-1.348;2023-10-13T11:41:14;23.03;;;8.23;;
4686;SDS011;2357;47.316;-1.348;2023-10-13T11:43:40;15.93;;;7.87;;
4686;SDS011;2357;47.316;-1.348;2023-10-13T11:46:17;20.80;;;7.60;;
4686;SDS011;2357;47.316;-1.348;2023-10-13T11:49:09;31.00;;;10.53;;
4686;SDS011;2357;47.316;-1.348;2023-10-13T11:51:42;24.63;;;9.13;;
4686;SDS011;2357;47.316;-1.348;2023-10-13T11:54:12;27.67;;;9.20;;
4686;SDS011;2357;47.316;-1.348;2023-10-13T11:56:42;29.57;;;9.27;;
4686;SDS011;2357;47.316;-1.348;2023-10-13T11:59:09;25.43;;;10.30;;
4686;SDS011;2357;47.316;-1.348;2023-10-13T12:04:28;32.03;;;12.53;;
4686;SDS011;2357;47.316;-1.348;2023-10-13T12:07:21;32.13;;;12.70;;
4686;SDS011;2357;47.316;-1.348;2023-10-13T12:10:10;34.27;;;13.17;;
4686;SDS011;2357;47.316;-1.348;2023-10-13T12:12:54;32.87;;;14.70;;
4686;SDS011;2357;47.316;-1.348;2023-10-13T12:15:20;42.40;;;16.53;;
4686;SDS011;2357;47.316;-1.348;2023-10-13T12:18:01;44.60;;;20.97;;
4686;SDS011;2357;47.316;-1.348;2023-10-13T12:20:28;41.47;;;21.40;;
4686;SDS011;2357;47.316;-1.348;2023-10-13T12:23:01;63.13;;;24.60;;
4686;SDS011;2357;47.316;-1.348;2023-10-13T12:25:40;59.10;;;27.20;;
4686;SDS011;2357;47.316;-1.348;2023-10-13T12:28:22;50.63;;;23.80;;
4686;SDS011;2357;47.316;-1.348;2023-10-13T12:30:48;61.93;;;25.13;;
4686;SDS011;2357;47.316;-1.348;2023-10-13T12:33:15;34.83;;;20.90;;
4686;SDS011;2357;47.316;-1.348;2023-10-13T12:35:49;55.03;;;20.60;;
4686;SDS011;2357;47.316;-1.348;2023-10-13T12:38:39;35.83;;;14.87;;
4686;SDS011;2357;47.316;-1.348;2023-10-13T12:41:11;37.60;;;16.67;;
4686;SDS011;2357;47.316;-1.348;2023-10-13T12:43:55;36.83;;;16.50;;
4686;SDS011;2357;47.316;-1.348;2023-10-13T12:46:39;35.33;;;11.50;;
4686;SDS011;2357;47.316;-1.348;2023-10-13T12:49:24;34.13;;;12.43;;
4686;SDS011;2357;47.316;-1.348;2023-10-13T12:52:07;26.53;;;8.10;;
4686;SDS011;2357;47.316;-1.348;2023-10-13T12:54:50;22.37;;;7.90;;
4686;SDS011;2357;47.316;-1.348;2023-10-13T12:57:22;25.50;;;7.73;;
4686;SDS011;2357;47.316;-1.348;2023-10-13T12:59:51;21.07;;;7.43;;
4686;SDS011;2357;47.316;-1.348;2023-10-13T13:02:22;31.37;;;8.83;;
4686;SDS011;2357;47.316;-1.348;2023-10-13T13:04:52;36.27;;;8.50;;
4686;SDS011;2357;47.316;-1.348;2023-10-13T13:07:31;19.90;;;7.67;;
4686;SDS011;2357;47.316;-1.348;2023-10-13T13:10:08;24.60;;;7.40;;
4686;SDS011;2357;47.316;-1.348;2023-10-13T13:12:36;23.70;;;8.20;;
4686;SDS011;2357;47.316;-1.348;2023-10-13T13:15:02;17.33;;;7.43;;
4686;SDS011;2357;47.316;-1.348;2023-10-13T13:17:33;25.53;;;7.47;;
4686;SDS011;2357;47.316;-1.348;2023-10-13T13:20:04;15.00;;;7.07;;
4686;SDS011;2357;47.316;-1.348;2023-10-13T13:22:37;23.70;;;6.30;;
4686;SDS011;2357;47.316;-1.348;2023-10-13T13:25:03;25.63;;;8.10;;
4686;SDS011;2357;47.316;-1.348;2023-10-13T13:27:33;17.37;;;6.83;;
4686;SDS011;2357;47.316;-1.348;2023-10-13T13:29:59;21.27;;;7.47;;
4686;SDS011;2357;47.316;-1.348;2023-10-13T13:32:25;14.77;;;6.53;;
4686;SDS011;2357;47.316;-1.348;2023-10-13T13:34:53;21.20;;;6.90;;
4686;SDS011;2357;47.316;-1.348;2023-10-13T13:37:22;14.77;;;6.00;;
4686;SDS011;2357;47.316;-1.348;2023-10-13T13:39:48;18.13;;;6.67;;
4686;SDS011;2357;47.316;-1.348;2023-10-13T13:42:17;25.03;;;7.00;;
4686;SDS011;2357;47.316;-1.348;2023-10-13T13:44:46;17.90;;;6.80;;
4686;SDS011;2357;47.316;-1.348;2023-10-13T13:47:15;25.77;;;7.37;;
4686;SDS011;2357;47.316;-1.348;2023-10-13T13:49:42;20.33;;;7.03;;
4686;SDS011;2357;47.316;-1.348;2023-10-13T13:52:17;16.63;;;7.80;;
4686;SDS011;2357;47.316;-1.348;2023-10-13T13:54:48;23.77;;;10.13;;
4686;SDS011;2357;47.316;-1.348;2023-10-13T13:57:13;39.93;;;10.40;;
4686;SDS011;2357;47.316;-1.348;2023-10-13T13:59:39;27.23;;;8.57;;
4686;SDS011;2357;47.316;-1.348;2023-10-13T14:02:09;37.23;;;10.97;;
4686;SDS011;2357;47.316;-1.348;2023-10-13T14:04:47;24.37;;;8.60;;
4686;SDS011;2357;47.316;-1.348;2023-10-13T14:07:15;33.13;;;12.13;;
4686;SDS011;2357;47.316;-1.348;2023-10-13T14:09:49;26.30;;;9.83;;
4686;SDS011;2357;47.316;-1.348;2023-10-13T14:12:20;31.03;;;11.07;;
4686;SDS011;2357;47.316;-1.348;2023-10-13T14:15:01;28.37;;;11.67;;
4686;SDS011;2357;47.316;-1.348;2023-10-13T14:17:27;37.90;;;12.33;;
4686;SDS011;2357;47.316;-1.348;2023-10-13T14:20:00;47.40;;;13.63;;
4686;SDS011;2357;47.316;-1.348;2023-10-13T14:22:35;32.07;;;12.57;;
4686;SDS011;2357;47.316;-1.348;2023-10-13T14:25:02;27.53;;;12.63;;
4686;SDS011;2357;47.316;-1.348;2023-10-13T14:27:33;40.20;;;14.43;;
4686;SDS011;2357;47.316;-1.348;2023-10-13T14:30:00;33.27;;;14.97;;
4686;SDS011;2357;47.316;-1.348;2023-10-13T14:32:27;39.90;;;14.70;;
4686;SDS011;2357;47.316;-1.348;2023-10-13T14:34:53;46.77;;;17.10;;
4686;SDS011;2357;47.316;-1.348;2023-10-13T14:37:20;43.00;;;16.13;;
4686;SDS011;2357;47.316;-1.348;2023-10-13T14:39:52;38.20;;;18.10;;
4686;SDS011;2357;47.316;-1.348;2023-10-13T14:42:22;52.57;;;18.60;;
4686;SDS011;2357;47.316;-1.348;2023-10-13T14:44:52;37.50;;;16.63;;
4686;SDS011;2357;47.316;-1.348;2023-10-13T14:47:23;44.73;;;16.47;;
4686;SDS011;2357;47.316;-1.348;2023-10-13T14:49:53;53.60;;;16.53;;
4686;SDS011;2357;47.316;-1.348;2023-10-13T14:52:26;27.80;;;12.40;;
4686;SDS011;2357;47.316;-1.348;2023-10-13T14:54:52;31.10;;;10.20;;
4686;SDS011;2357;47.316;-1.348;2023-10-13T14:57:21;26.70;;;9.47;;
4686;SDS011;2357;47.316;-1.348;2023-10-13T14:59:50;28.80;;;9.40;;
4686;SDS011;2357;47.316;-1.348;2023-10-13T15:02:19;15.47;;;6.70;;
4686;SDS011;2357;47.316;-1.348;2023-10-13T15:04:48;17.23;;;6.10;;
4686;SDS011;2357;47.316;-1.348;2023-10-13T15:07:14;17.00;;;6.53;;
4686;SDS011;2357;47.316;-1.348;2023-10-13T15:09:41;11.53;;;4.87;;
4686;SDS011;2357;47.316;-1.348;2023-10-13T15:12:08;14.60;;;4.00;;
4686;SDS011;2357;47.316;-1.348;2023-10-13T15:14:35;9.23;;;3.60;;
4686;SDS011;2357;47.316;-1.348;2023-10-13T15:17:07;13.33;;;2.57;;
4686;SDS011;2357;47.316;-1.348;2023-10-13T15:19:34;14.00;;;2.27;;
4686;SDS011;2357;47.316;-1.348;2023-10-13T15:22:08;5.87;;;2.40;;
4686;SDS011;2357;47.316;-1.348;2023-10-13T15:24:50;6.47;;;2.30;;
4686;SDS011;2357;47.316;-1.348;2023-10-13T15:27:34;10.33;;;2.40;;
4686;SDS011;2357;47.316;-1.348;2023-10-13T15:30:06;7.00;;;2.30;;
4686;SDS011;2357;47.316;-1.348;2023-10-13T15:32:45;6.87;;;2.10;;
4686;SDS011;2357;47.316;-1.348;2023-10-13T15:35:10;14.40;;;2.90;;
4686;SDS011;2357;47.316;-1.348;2023-10-13T15:37:38;8.30;;;1.73;;
4686;SDS011;2357;47.316;-1.348;2023-10-13T15:40:05;12.23;;;2.50;;
4686;SDS011;2357;47.316;-1.348;2023-10-13T15:42:35;13.80;;;1.90;;
4686;SDS011;2357;47.316;-1.348;2023-10-13T15:45:06;8.40;;;1.80;;
4686;SDS011;2357;47.316;-1.348;2023-10-13T15:47:41;12.73;;;2.10;;